Time;durP1;ratioP1;P1;durP2;ratioP2;P2;SDS_P1;SDS_P2;PMS_P1;PMS_P2;Temp;Humidity;BMP_temperature;BMP_pressure;BME280_temperature;BME280_humidity;BME280_pressure;Samples;Min_cycle;Max_cycle;Signal;HPM_P1;HPM_P2
2022/03/26 00:02:10;;;;;;;101.62;45.80;;;;;;;1.77;61.16;100087.95;4493438;77;21067;-84
2022/03/26 00:08:12;;;;;;;113.80;51.98;;;;;;;1.78;61.43;100084.14;4487896;79;21016;-84
2022/03/26 00:14:13;;;;;;;115.70;50.88;;;;;;;1.72;61.35;100088.83;4490083;77;20995;-84
2022/03/26 00:20:21;;;;;;;98.90;46.68;;;;;;;1.71;61.45;100083.15;4499120;79;21027;-83
2022/03/26 00:26:22;;;;;;;111.92;52.78;;;;;;;1.71;61.45;100083.15;4488058;77;21364;-83
2022/03/26 00:32:28;;;;;;;107.32;46.80;;;;;;;1.67;61.48;100081.33;4491400;77;21007;-84
2022/03/26 00:38:38;;;;;;;117.42;55.63;;;;;;;1.60;61.79;100077.63;4490166;77;21055;-84
2022/03/26 00:44:39;;;;;;;130.57;56.95;;;;;;;1.57;62.00;100068.77;4488591;77;21041;-83
2022/03/26 00:50:40;;;;;;;125.90;57.88;;;;;;;1.60;62.20;100073.05;4492202;77;21003;-84
2022/03/26 00:56:47;;;;;;;138.60;62.62;;;;;;;1.61;62.23;100075.98;4495878;77;21032;-84
2022/03/26 01:02:48;;;;;;;132.72;59.20;;;;;;;1.17;60.70;100074.14;4491895;77;21032;-84
2022/03/26 01:08:51;;;;;;;130.50;59.23;;;;;;;0.80;60.96;100077.23;4488796;77;20990;-84
2022/03/26 01:14:53;;;;;;;140.85;64.62;;;;;;;0.67;61.90;100075.20;4494382;77;20999;-84
2022/03/26 01:21:08;;;;;;;126.87;57.33;;;;;;;0.72;62.77;100073.81;4496025;77;20969;-83
2022/03/26 01:27:16;;;;;;;136.87;61.10;;;;;;;0.82;63.02;100073.16;4485766;77;21960;-83
2022/03/26 01:33:19;;;;;;;139.27;62.70;;;;;;;0.70;63.18;100066.55;4491041;77;20968;-84
2022/03/26 01:39:23;;;;;;;134.87;63.60;;;;;;;0.64;63.55;100067.15;4492981;77;22062;-84
2022/03/26 01:45:28;;;;;;;139.35;63.73;;;;;;;0.62;63.62;100063.11;4511281;77;21050;-83
2022/03/26 01:51:34;;;;;;;121.13;56.18;;;;;;;0.46;63.24;100062.98;4519878;77;21895;-83
2022/03/26 01:57:36;;;;;;;99.43;45.33;;;;;;;0.44;64.12;100071.91;4521121;77;21010;-83
2022/03/26 02:03:44;;;;;;;136.95;60.20;;;;;;;0.37;63.63;100070.89;4522404;77;20971;-84
2022/03/26 02:16:52;;;;;;;130.20;58.42;;;;;;;0.15;65.01;100081.83;4532819;77;20918;-83
2022/03/26 02:22:55;;;;;;;120.25;56.45;;;;;;;0.05;63.88;100081.34;4524867;77;21034;-83
2022/03/26 02:29:10;;;;;;;122.60;57.25;;;;;;;-0.21;65.13;100075.88;4521833;77;21028;-82
2022/03/26 02:35:13;;;;;;;137.93;59.33;;;;;;;-0.21;65.13;100075.88;4513900;77;20976;-82
2022/03/26 02:41:14;;;;;;;140.68;60.80;;;;;;;-0.17;65.67;100064.80;4524638;77;21058;-83
2022/03/26 02:47:16;;;;;;;116.47;53.73;;;;;;;-0.15;65.72;100068.84;4495834;78;21030;-82
2022/03/26 02:53:17;;;;;;;125.17;56.07;;;;;;;-0.19;65.88;100079.88;4475443;78;21055;-84
2022/03/26 02:59:19;;;;;;;127.50;55.33;;;;;;;-0.16;65.99;100071.81;4480675;78;20984;-83
2022/03/26 03:05:58;;;;;;;114.77;54.53;;;;;;;-0.20;65.97;100066.17;4484954;78;21032;-82
2022/03/26 03:12:00;;;;;;;115.82;53.15;;;;;;;-0.20;66.78;100063.48;4475040;78;22005;-82
2022/03/26 03:18:02;;;;;;;133.27;58.43;;;;;;;-0.06;66.87;100061.78;4489928;78;21044;-81
2022/03/26 03:24:04;;;;;;;131.30;60.13;;;;;;;-0.13;65.83;100057.80;4491159;78;21014;-82
2022/03/26 03:30:10;;;;;;;134.73;59.63;;;;;;;-0.37;66.38;100058.20;4480199;78;21036;-81
2022/03/26 03:36:12;;;;;;;123.87;55.27;;;;;;;-0.55;66.34;100054.82;4484348;78;21032;-81
2022/03/26 03:48:57;;;;;;;112.87;49.97;;;;;;;-0.61;67.05;100062.66;4361430;80;21614;-81
2022/03/26 03:54:59;;;;;;;116.20;53.43;;;;;;;-0.60;66.17;100052.15;4360122;80;21015;-81
2022/03/26 04:01:02;;;;;;;128.33;57.00;;;;;;;-0.82;66.97;100055.73;4362464;80;21067;-82
2022/03/26 04:07:03;;;;;;;122.83;53.57;;;;;;;-0.90;67.61;100050.39;4359041;80;21015;-82
2022/03/26 04:13:05;;;;;;;123.67;56.07;;;;;;;-0.90;67.91;100042.86;4359711;80;20992;-81
2022/03/26 04:19:07;;;;;;;120.60;55.83;;;;;;;-0.91;67.53;100041.27;4360778;80;21610;-81
2022/03/26 04:25:09;;;;;;;125.67;56.77;;;;;;;-0.92;68.02;100039.11;4364093;80;21042;-81
2022/03/26 04:31:12;;;;;;;157.27;65.83;;;;;;;-0.90;67.91;100041.52;4360462;80;21012;-81
2022/03/26 04:37:13;;;;;;;145.33;64.87;;;;;;;-0.86;68.59;100046.63;4364262;80;21015;-81
2022/03/26 04:43:18;;;;;;;136.17;62.00;;;;;;;-0.70;68.84;100040.08;4379951;77;21024;-82
2022/03/26 04:49:20;;;;;;;137.57;61.40;;;;;;;-0.63;68.99;100048.67;4497553;77;22019;-81
2022/03/26 04:55:21;;;;;;;131.60;57.80;;;;;;;-0.53;69.21;100052.10;4496210;77;21078;-80
2022/03/26 05:01:23;;;;;;;129.03;55.53;;;;;;;-0.41;69.34;100055.82;4489751;77;21008;-80
2022/03/26 05:07:46;;;;;;;119.70;52.67;;;;;;;-0.35;69.14;100044.76;4492123;77;21890;-81
2022/03/26 05:13:48;;;;;;;120.13;54.60;;;;;;;-0.27;69.27;100054.13;4490230;77;21035;-82
2022/03/26 05:19:50;;;;;;;118.00;54.33;;;;;;;-0.14;69.24;100045.41;4491070;77;21602;-81
2022/03/26 05:25:52;;;;;;;118.53;58.10;;;;;;;-0.05;67.78;100045.09;4493191;77;20985;-81
2022/03/26 05:31:55;;;;;;;116.87;57.30;;;;;;;0.06;69.18;100044.47;4493888;77;21031;-81
2022/03/26 05:37:56;;;;;;;122.30;55.20;;;;;;;0.21;69.22;100034.92;4495521;77;20975;-81
2022/03/26 05:44:00;;;;;;;108.55;53.70;;;;;;;0.37;69.16;100025.62;4487005;77;21059;-82
2022/03/26 05:50:05;;;;;;;119.70;57.80;;;;;;;0.57;69.42;100013.31;4491103;77;21098;-82
2022/03/26 05:56:06;;;;;;;126.92;56.15;;;;;;;0.79;69.20;100012.27;4489311;77;20988;-83
2022/03/26 06:02:11;;;;;;;140.28;52.50;;;;;;;0.96;69.17;100012.61;4491852;77;20979;-82
2022/03/26 06:08:11;;;;;;;108.80;49.00;;;;;;;1.63;69.37;100012.27;4506745;77;20953;-82
2022/03/26 06:14:13;;;;;;;108.05;48.02;;;;;;;1.63;69.37;100012.27;4490065;77;21019;-82
2022/03/26 06:20:14;;;;;;;97.30;45.52;;;;;;;2.29;69.40;100006.64;4497520;77;20975;-83
2022/03/26 06:26:16;;;;;;;87.55;42.10;;;;;;;2.99;68.98;100010.20;4498981;77;21062;-83
2022/03/26 06:32:20;;;;;;;90.65;45.23;;;;;;;3.55;68.49;100007.70;4500289;77;21392;-83
2022/03/26 06:38:21;;;;;;;80.30;40.40;;;;;;;4.04;68.13;100011.15;4496730;77;20998;-83
2022/03/26 06:44:23;;;;;;;92.67;45.28;;;;;;;4.65;67.77;100011.23;4490209;77;21130;-83
2022/03/26 06:50:26;;;;;;;86.78;44.42;;;;;;;5.28;67.35;100007.34;4457039;78;21577;-85
2022/03/26 06:56:27;;;;;;;87.85;44.48;;;;;;;5.97;66.86;100019.37;4487668;77;21520;-85
2022/03/26 07:02:28;;;;;;;91.17;45.67;;;;;;;6.54;66.00;100019.95;4453351;78;21785;-84
2022/03/26 07:08:31;;;;;;;92.80;45.90;;;;;;;7.20;65.59;100022.53;4447794;78;21019;-86
2022/03/26 07:14:35;;;;;;;81.70;43.92;;;;;;;7.75;64.33;100018.50;4450493;79;21541;-86
2022/03/26 07:20:39;;;;;;;86.95;42.83;;;;;;;8.29;63.76;100012.56;4466049;78;21058;-86
2022/03/26 07:26:43;;;;;;;81.02;41.55;;;;;;;8.83;63.04;100012.70;4457034;78;20961;-85
2022/03/26 07:32:44;;;;;;;75.92;41.15;;;;;;;9.29;62.09;100012.87;4470402;78;21013;-86
2022/03/26 07:38:49;;;;;;;69.65;39.38;;;;;;;9.61;61.08;100015.25;4477962;78;20997;-86
2022/03/26 07:44:50;;;;;;;75.35;39.33;;;;;;;9.87;60.86;100016.45;4477646;77;21578;-85
2022/03/26 07:50:52;;;;;;;71.05;37.00;;;;;;;10.14;60.23;100019.03;4487652;77;21018;-86
2022/03/26 07:56:53;;;;;;;72.22;37.23;;;;;;;10.63;59.42;100017.69;4486652;77;21082;-86
2022/03/26 08:02:55;;;;;;;66.28;36.03;;;;;;;11.24;57.99;100024.93;4468769;77;21007;-86
2022/03/26 08:08:56;;;;;;;66.55;33.95;;;;;;;11.91;57.84;100013.04;4482808;77;21024;-86
2022/03/26 08:15:39;;;;;;;69.72;34.27;;;;;;;12.43;55.63;100009.20;4490601;77;21978;-86
2022/03/26 08:21:40;;;;;;;61.92;31.95;;;;;;;12.72;54.25;100014.66;4486559;77;21501;-86
2022/03/26 08:27:42;;;;;;;56.58;29.70;;;;;;;13.13;54.09;100015.25;4483076;77;20998;-86
2022/03/26 08:33:44;;;;;;;59.80;29.77;;;;;;;13.26;53.48;100011.16;4478183;77;21039;-87
2022/03/26 08:39:46;;;;;;;59.75;28.52;;;;;;;13.45;52.42;99999.27;4484299;77;21477;-87
2022/03/26 08:45:47;;;;;;;58.42;29.45;;;;;;;13.57;51.31;99987.47;4319354;77;30641;-86
2022/03/26 08:51:49;;;;;;;57.65;27.15;;;;;;;13.93;49.17;99970.87;4165101;83;21069;-86
2022/03/26 08:57:52;;;;;;;49.70;21.50;;;;;;;14.55;50.09;99970.66;4161480;83;21014;-86
2022/03/26 09:04:01;;;;;;;45.28;20.80;;;;;;;14.97;49.72;99960.81;4167537;83;21144;-86
2022/03/26 09:10:03;;;;;;;37.67;20.88;;;;;;;15.67;47.99;99946.78;4166305;83;21077;-86
2022/03/26 09:16:05;;;;;;;38.15;18.25;;;;;;;16.38;48.16;99936.22;4164177;82;21029;-87
2022/03/26 09:22:07;;;;;;;33.08;20.52;;;;;;;17.54;47.19;99934.16;4160017;83;21103;-87
2022/03/26 09:28:09;;;;;;;39.83;21.35;;;;;;;18.31;45.97;99924.16;4162666;83;21037;-86
2022/03/26 09:34:10;;;;;;;36.20;19.50;;;;;;;18.87;44.14;99932.14;4168193;83;21010;-87
2022/03/26 09:40:12;;;;;;;32.73;17.85;;;;;;;19.55;40.42;99921.47;4169760;83;21076;-87
2022/03/26 09:46:14;;;;;;;27.02;16.93;;;;;;;19.86;42.73;99922.30;4195546;82;21064;-86
2022/03/26 09:52:16;;;;;;;22.05;14.90;;;;;;;20.03;39.12;99904.03;4271049;81;21477;-87
2022/03/26 09:58:18;;;;;;;29.37;16.05;;;;;;;20.52;39.13;99903.19;4267404;81;21009;-87
2022/03/26 10:04:22;;;;;;;30.35;16.48;;;;;;;20.53;38.90;99893.03;4273443;80;21444;-86
2022/03/26 10:10:25;;;;;;;26.75;15.53;;;;;;;21.17;37.06;99893.61;4273040;81;21092;-88
2022/03/26 10:16:26;;;;;;;30.95;15.98;;;;;;;21.05;36.88;99882.30;4266709;81;21036;-87
2022/03/26 10:22:39;;;;;;;27.42;15.28;;;;;;;21.12;35.67;99880.20;4276377;81;21063;-87
2022/03/26 10:28:43;;;;;;;30.12;15.05;;;;;;;21.14;36.01;99865.85;4254336;82;21109;-87
2022/03/26 10:34:50;;;;;;;35.00;15.90;;;;;;;21.53;35.32;99865.29;4252173;82;21038;-87
2022/03/26 10:41:02;;;;;;;30.95;14.98;;;;;;;21.33;34.86;99861.70;4257299;82;21584;-87
2022/03/26 10:47:04;;;;;;;41.35;16.30;;;;;;;21.45;34.05;99857.52;4290709;81;21055;-88
2022/03/26 10:53:13;;;;;;;33.53;14.90;;;;;;;21.80;32.25;99851.25;4190324;83;21060;-86
2022/03/26 10:59:15;;;;;;;28.90;16.10;;;;;;;21.61;32.56;99838.87;4329504;81;21068;-88
2022/03/26 11:05:16;;;;;;;28.17;16.55;;;;;;;21.51;32.37;99838.48;4327018;80;21398;-87
2022/03/26 11:11:18;;;;;;;25.55;15.75;;;;;;;21.74;32.57;99838.41;4304057;81;21048;-87
2022/03/26 11:17:55;;;;;;;36.30;17.85;;;;;;;21.96;31.61;99817.86;4296875;80;21387;-86
2022/03/26 11:24:18;;;;;;;;;;;;;;;21.97;31.46;99812.48;4316528;81;21016;-88
2022/03/26 11:30:47;;;;;;;32.98;17.67;;;;;;;22.02;31.50;99797.24;4321009;80;20114;-88
2022/03/26 11:36:51;;;;;;;31.10;16.65;;;;;;;21.56;30.87;99756.41;4304935;81;21028;-87
2022/03/26 11:42:53;;;;;;;27.52;16.97;;;;;;;21.56;30.87;99756.41;4284146;82;21850;-88
2022/03/26 11:55:24;;;;;;;34.83;15.45;;;;;;;20.65;31.46;99763.72;4260333;82;22018;-87
2022/03/26 12:01:25;;;;;;;29.20;14.15;;;;;;;20.36;31.18;99762.63;4265127;82;21545;-87
2022/03/26 12:07:30;;;;;;;28.95;12.85;;;;;;;20.20;31.39;99758.48;4265437;82;21029;-87
2022/03/26 12:13:34;;;;;;;26.95;16.40;;;;;;;19.71;31.74;99735.59;4248543;82;21095;-86
2022/03/26 12:19:50;;;;;;;26.37;13.95;;;;;;;19.42;31.65;99727.44;4254636;82;21048;-87
2022/03/26 12:26:08;;;;;;;25.37;13.60;;;;;;;19.18;31.95;99727.13;4262757;82;21036;-87
2022/03/26 12:32:10;;;;;;;20.12;13.00;;;;;;;18.77;32.16;99726.39;4243240;81;21294;-87
2022/03/26 12:38:13;;;;;;;27.02;12.03;;;;;;;18.49;32.26;99716.38;4260317;82;21529;-88
2022/03/26 12:44:16;;;;;;;26.50;11.65;;;;;;;19.14;32.40;99702.02;4253911;82;20996;-86
2022/03/26 12:50:22;;;;;;;26.62;10.68;;;;;;;19.80;32.01;99709.45;4316336;81;21044;-87
2022/03/26 12:56:24;;;;;;;22.37;8.63;;;;;;;19.55;31.66;99699.89;4320288;80;21095;-87
2022/03/26 13:02:25;;;;;;;18.85;8.50;;;;;;;19.31;31.01;99674.03;4326289;81;21007;-87
2022/03/26 13:08:26;;;;;;;25.43;8.75;;;;;;;18.80;31.26;99684.55;4306863;80;21063;-87
2022/03/26 13:14:27;;;;;;;22.93;8.88;;;;;;;18.26;31.58;99677.34;4306461;81;21072;-86
2022/03/26 13:20:39;;;;;;;29.15;9.65;;;;;;;18.16;31.84;99669.92;4303619;80;21021;-86
2022/03/26 13:27:08;;;;;;;32.65;10.35;;;;;;;18.41;31.77;99653.08;4273194;81;21002;-87
2022/03/26 13:33:12;;;;;;;16.37;9.70;;;;;;;18.74;31.63;99648.94;4285586;82;21426;-87
2022/03/26 13:39:15;;;;;;;19.32;9.30;;;;;;;19.11;31.44;99643.95;4316692;80;21534;-86
2022/03/26 13:45:18;;;;;;;20.48;11.15;;;;;;;19.06;31.60;99636.08;4302940;80;21576;-87
2022/03/26 13:51:28;;;;;;;25.70;10.30;;;;;;;19.19;31.46;99628.78;4186620;83;22031;-89
2022/03/26 13:57:37;;;;;;;20.80;10.30;;;;;;;18.99;31.46;99615.97;4258445;81;21073;-87
2022/03/26 14:03:41;;;;;;;23.80;8.73;;;;;;;18.73;31.80;99620.86;4244273;82;21021;-87
2022/03/26 14:09:59;;;;;;;26.25;10.30;;;;;;;18.80;31.50;99612.44;4252975;82;21057;-86
2022/03/26 14:16:02;;;;;;;32.05;10.13;;;;;;;18.40;32.00;99603.02;4259451;81;21350;-85
2022/03/26 14:22:03;;;;;;;18.00;10.70;;;;;;;18.19;32.12;99598.44;4254238;81;21037;-87
2022/03/26 14:28:13;;;;;;;22.17;10.85;;;;;;;17.96;32.24;99599.63;4262669;81;21696;-86
2022/03/26 14:34:14;;;;;;;20.75;9.30;;;;;;;17.76;32.73;99588.16;4259052;81;20994;-86
2022/03/26 14:40:16;;;;;;;19.80;9.23;;;;;;;17.61;32.94;99586.09;4263195;81;20994;-86
2022/03/26 14:46:18;;;;;;;23.00;9.83;;;;;;;17.53;32.53;99583.19;4256332;81;21076;-86
2022/03/26 14:52:19;;;;;;;18.17;9.33;;;;;;;17.55;32.72;99578.05;4238537;82;21948;-87
2022/03/26 14:58:20;;;;;;;23.35;9.60;;;;;;;17.46;33.03;99561.70;4249803;83;21593;-87
2022/03/26 15:04:22;;;;;;;15.93;9.25;;;;;;;17.56;33.31;99582.37;4249705;81;21017;-86
2022/03/26 15:10:23;;;;;;;16.45;9.13;;;;;;;17.63;33.21;99574.62;4242440;81;21016;-87
2022/03/26 15:16:26;;;;;;;32.00;9.65;;;;;;;17.61;33.08;99570.08;4253609;83;21105;-88
2022/03/26 15:22:27;;;;;;;23.10;10.18;;;;;;;17.33;33.36;99573.02;4252961;81;21627;-86
2022/03/26 15:28:31;;;;;;;20.70;11.70;;;;;;;16.98;33.67;99580.36;4245719;83;21097;-85
2022/03/26 15:34:34;;;;;;;27.13;14.25;;;;;;;16.75;33.87;99584.81;4240650;81;21044;-86
2022/03/26 15:40:36;;;;;;;20.32;10.60;;;;;;;16.58;34.36;99585.09;4244433;83;21025;-86
2022/03/26 15:46:38;;;;;;;13.25;7.53;;;;;;;16.47;34.34;99598.74;4253752;81;21045;-87
2022/03/26 15:52:39;;;;;;;17.55;7.50;;;;;;;16.28;34.82;99606.86;4318148;80;21026;-86
2022/03/26 15:58:42;;;;;;;28.15;9.00;;;;;;;16.03;35.39;99608.87;4272688;81;21172;-86
2022/03/26 16:04:43;;;;;;;17.52;7.42;;;;;;;15.79;35.71;99622.08;4272957;81;21023;-88
2022/03/26 16:10:44;;;;;;;12.95;7.17;;;;;;;15.46;37.19;99612.20;4280285;82;21093;-85
2022/03/26 16:16:48;;;;;;;14.95;6.60;;;;;;;15.29;37.43;99622.59;4267738;81;22003;-87
2022/03/26 16:22:50;;;;;;;12.95;7.33;;;;;;;15.18;37.92;99638.91;4267950;82;21965;-86
2022/03/26 16:28:52;;;;;;;20.45;7.22;;;;;;;15.10;38.38;99643.62;4305289;81;20985;-87
2022/03/26 16:34:57;;;;;;;21.87;8.55;;;;;;;14.95;38.92;99642.00;4250906;82;21052;-86
2022/03/26 16:40:58;;;;;;;27.32;8.68;;;;;;;14.84;39.28;99641.17;4272122;81;21034;-88
2022/03/26 16:46:59;;;;;;;19.40;9.08;;;;;;;14.73;39.73;99657.44;4292370;81;21041;-86
2022/03/26 16:53:08;;;;;;;15.93;7.80;;;;;;;14.57;40.09;99659.14;4263224;82;21017;-86
2022/03/26 16:59:15;;;;;;;19.60;9.48;;;;;;;14.48;41.09;99662.83;4258283;82;21478;-86
2022/03/26 17:05:16;;;;;;;106.85;36.28;;;;;;;14.39;41.23;99661.59;4262171;81;22027;-86
2022/03/26 17:11:19;;;;;;;71.62;26.80;;;;;;;14.29;41.68;99661.72;4139651;82;9999865;-86
2022/03/26 17:17:22;;;;;;;43.42;20.37;;;;;;;14.16;42.02;99668.09;4262739;82;21948;-86
2022/03/26 17:23:23;;;;;;;27.90;14.40;;;;;;;14.08;42.31;99662.32;4280644;82;21028;-86
2022/03/26 17:29:25;;;;;;;23.20;12.50;;;;;;;14.04;42.54;99684.11;4257283;81;21530;-86
2022/03/26 17:35:31;;;;;;;19.42;9.55;;;;;;;13.92;42.90;99687.94;4258655;81;21040;-87
2022/03/26 17:41:34;;;;;;;16.60;9.07;;;;;;;13.86;43.12;99692.79;4257529;81;20994;-87
2022/03/26 17:47:35;;;;;;;14.03;8.45;;;;;;;13.86;43.76;99692.22;4259132;81;21092;-87
2022/03/26 17:53:36;;;;;;;16.10;9.00;;;;;;;13.90;44.08;99699.13;4248856;81;20985;-86
2022/03/26 17:59:37;;;;;;;22.67;10.40;;;;;;;13.93;44.56;99720.39;4236546;81;21481;-85
2022/03/26 18:05:40;;;;;;;23.15;10.23;;;;;;;13.91;44.52;99729.60;4237223;81;21021;-86
2022/03/26 18:11:41;;;;;;;26.77;9.50;;;;;;;13.85;46.55;99742.93;4136563;81;9999870;-86
2022/03/26 18:17:43;;;;;;;13.83;8.58;;;;;;;13.69;49.26;99765.75;4241790;83;21418;-85
2022/03/26 18:23:44;;;;;;;11.93;7.72;;;;;;;13.43;50.67;99777.44;4244759;83;20996;-85
2022/03/26 18:29:45;;;;;;;14.60;8.45;;;;;;;13.28;50.27;99782.56;4244831;83;20983;-86
2022/03/26 18:35:47;;;;;;;22.20;10.05;;;;;;;13.18;51.03;99799.70;4244439;82;21043;-86
2022/03/26 18:41:48;;;;;;;27.75;13.72;;;;;;;13.05;51.84;99803.26;4240909;83;22047;-87
2022/03/26 18:47:49;;;;;;;21.45;13.15;;;;;;;12.98;57.44;99826.50;4253245;81;20997;-87
2022/03/26 18:54:24;;;;;;;24.98;14.10;;;;;;;12.53;61.31;99853.45;4268867;81;21033;-85
2022/03/26 19:06:58;;;;;;;26.33;14.03;;;;;;;11.80;67.67;99886.39;4267678;81;20957;-87
2022/03/26 19:14:01;;;;;;;26.68;12.40;;;;;;;11.23;66.53;99906.88;4280001;81;21072;-87
2022/03/26 19:20:13;;;;;;;19.45;12.60;;;;;;;10.93;65.78;99909.30;4255952;81;21036;-86
2022/03/26 19:26:15;;;;;;;33.98;19.27;;;;;;;10.68;68.84;99918.27;4273022;81;20965;-86
2022/03/26 19:32:16;;;;;;;24.85;14.50;;;;;;;10.53;69.33;99927.27;4276101;81;20996;-87
2022/03/26 19:38:18;;;;;;;21.65;14.83;;;;;;;10.47;73.37;99930.62;4272553;81;21829;-88
2022/03/26 19:44:19;;;;;;;28.80;18.07;;;;;;;10.25;70.53;99939.41;4157266;81;10000141;-87
2022/03/26 19:50:20;;;;;;;38.53;20.60;;;;;;;10.16;70.36;99934.67;4273719;80;21040;-87
2022/03/26 19:56:25;;;;;;;31.20;21.12;;;;;;;10.06;71.96;99946.07;4251681;82;21013;-86
2022/03/26 20:02:27;;;;;;;39.18;22.55;;;;;;;10.01;71.64;99946.31;4246030;83;21495;-86
2022/03/26 20:08:28;;;;;;;36.15;22.10;;;;;;;9.91;70.07;99953.66;4251427;81;21140;-88
2022/03/26 20:21:11;;;;;;;37.48;21.80;;;;;;;9.92;70.27;99960.71;4209152;81;21039;-87
2022/03/26 20:27:12;;;;;;;33.02;20.62;;;;;;;9.96;70.93;99980.77;4253878;81;21016;-88
2022/03/26 20:33:15;;;;;;;38.28;21.95;;;;;;;9.83;70.18;99993.69;4247489;83;21005;-87
2022/03/26 20:39:20;;;;;;;30.65;19.87;;;;;;;9.70;70.54;99997.58;4258553;81;21040;-85
2022/03/26 20:45:19;;;;;;;37.17;20.75;;;;;;;9.71;72.03;100022.40;4260580;82;21009;-87
2022/03/26 20:51:21;;;;;;;38.13;22.32;;;;;;;9.65;71.13;100035.31;4263168;81;21044;-86
2022/03/26 20:57:22;;;;;;;33.70;17.30;;;;;;;9.58;70.80;100054.42;4258630;81;21503;-87
2022/03/26 21:03:24;;;;;;;38.88;18.98;;;;;;;9.61;73.47;100061.16;4256433;81;21006;-87
2022/03/26 21:09:26;;;;;;;23.15;12.37;;;;;;;9.32;72.23;100067.64;4257837;81;21501;-86
2022/03/26 21:15:30;;;;;;;29.48;13.35;;;;;;;9.13;71.49;100086.51;4256317;82;20996;-86
2022/03/26 21:21:32;;;;;;;18.80;10.70;;;;;;;8.89;71.53;100093.30;4260552;82;21057;-86
2022/03/26 21:27:38;;;;;;;21.42;10.85;;;;;;;8.72;71.19;100094.03;4258190;83;21148;-86
2022/03/26 21:34:15;;;;;;;28.40;11.90;;;;;;;8.51;70.41;100100.08;4259299;83;21683;-85
2022/03/26 21:40:24;;;;;;;18.30;10.70;;;;;;;8.35;69.94;100115.48;3985965;88;22784;-85
2022/03/26 21:46:25;;;;;;;30.08;14.43;;;;;;;8.33;69.97;100123.19;3988804;87;21071;-86
2022/03/26 21:52:27;;;;;;;27.02;14.20;;;;;;;8.29;70.04;100135.87;3993742;85;21073;-87
2022/03/26 21:58:45;;;;;;;25.60;12.37;;;;;;;8.11;69.85;100133.83;4197533;83;21545;-86
2022/03/26 22:04:48;;;;;;;36.42;14.80;;;;;;;7.88;69.73;100141.50;4239626;83;21022;-86
2022/03/26 22:11:09;;;;;;;44.05;15.45;;;;;;;7.71;69.89;100151.68;4260032;81;21841;-85
2022/03/26 22:17:18;;;;;;;22.48;11.75;;;;;;;7.65;70.07;100160.62;4262949;82;21001;-85
2022/03/26 22:23:19;;;;;;;21.35;11.88;;;;;;;7.70;70.37;100165.08;4258489;83;21477;-85
2022/03/26 22:29:27;;;;;;;20.65;12.05;;;;;;;7.75;70.37;100179.31;4059504;86;21163;-85
2022/03/26 22:35:29;;;;;;;23.20;12.80;;;;;;;7.72;70.37;100172.37;4252544;83;21010;-86
2022/03/26 22:41:30;;;;;;;26.65;13.60;;;;;;;7.55;69.88;100186.85;4243623;81;22224;-85
2022/03/26 22:47:37;;;;;;;28.20;14.90;;;;;;;7.36;70.20;100189.16;4251349;83;21069;-86
2022/03/26 22:53:59;;;;;;;21.10;11.35;;;;;;;7.21;70.05;100191.59;4257705;81;20998;-86
2022/03/26 23:07:35;;;;;;;28.52;14.50;;;;;;;7.06;71.71;100201.09;4269607;81;25491;-85
2022/03/26 23:13:40;;;;;;;27.62;13.40;;;;;;;7.08;71.14;100206.22;4262865;83;21510;-85
2022/03/26 23:19:41;;;;;;;25.02;13.35;;;;;;;7.16;71.44;100218.99;4246879;83;21620;-85
2022/03/26 23:25:43;;;;;;;32.35;16.30;;;;;;;7.28;71.48;100224.60;4256974;81;21594;-86
2022/03/26 23:31:45;;;;;;;28.60;16.15;;;;;;;7.29;71.31;100239.25;4253011;83;21026;-86
2022/03/26 23:37:47;;;;;;;32.05;18.00;;;;;;;7.31;71.45;100243.02;4248211;83;21466;-86
2022/03/26 23:44:02;;;;;;;32.30;18.62;;;;;;;7.25;71.55;100243.73;4240510;83;21095;-87
2022/03/26 23:50:09;;;;;;;39.60;20.32;;;;;;;7.27;71.64;100263.28;4249545;81;21009;-85
2022/03/26 23:56:11;;;;;;;46.42;20.25;;;;;;;7.29;71.91;100273.86;4251490;83;21074;-85
